Time;durP1;ratioP1;P1;durP2;ratioP2;P2;SDS_P1;SDS_P2;PMS_P1;PMS_P2;Temp;Humidity;BMP_temperature;BMP_pressure;BME280_temperature;BME280_humidity;BME280_pressure;Samples;Min_cycle;Max_cycle;Signal;HPM_P1;HPM_P2
2023/08/25 00:02:23;;;;;;;6.13;4.37;;;;;;;22.68;nan;99164.72;5055595;28;20307;-77
2023/08/25 00:04:49;;;;;;;4.67;4.13;;;;;;;22.66;nan;99160.56;5055776;28;20212;-77
2023/08/25 00:07:14;;;;;;;5.93;3.97;;;;;;;22.63;nan;99169.81;5057341;28;20294;-77
2023/08/25 00:09:40;;;;;;;6.50;3.90;;;;;;;22.58;nan;99161.50;5056641;28;20264;-77
2023/08/25 00:12:05;;;;;;;4.60;3.40;;;;;;;22.51;nan;99147.19;5057540;28;20560;-77
2023/08/25 00:14:31;;;;;;;4.67;3.60;;;;;;;22.43;nan;99145.44;5054514;28;20235;-77
2023/08/25 00:16:56;;;;;;;11.17;4.03;;;;;;;22.36;nan;99135.66;5054755;28;20193;-77
2023/08/25 00:19:22;;;;;;;4.40;4.00;;;;;;;22.30;nan;99132.72;5057882;28;20449;-77
2023/08/25 00:21:47;;;;;;;9.37;5.57;;;;;;;22.28;nan;99129.41;5055055;28;20790;-77
2023/08/25 00:24:12;;;;;;;6.00;4.60;;;;;;;22.29;nan;99135.56;5058701;28;20224;-77
2023/08/25 00:26:39;;;;;;;5.97;3.70;;;;;;;22.28;nan;99134.75;5054501;28;20203;-77
2023/08/25 00:29:06;;;;;;;5.37;4.30;;;;;;;22.26;nan;99136.78;5053175;28;20521;-77
2023/08/25 00:31:31;;;;;;;4.03;3.60;;;;;;;22.23;nan;99121.09;5052909;28;20463;-77
2023/08/25 00:33:58;;;;;;;4.30;3.70;;;;;;;22.22;nan;99123.94;5054247;28;20466;-77
2023/08/25 00:36:24;;;;;;;4.33;3.67;;;;;;;22.22;nan;99126.63;5055729;28;20197;-77
2023/08/25 00:38:51;;;;;;;7.40;4.13;;;;;;;22.24;nan;99128.09;5057185;28;20476;-77
2023/08/25 00:41:17;;;;;;;5.07;2.87;;;;;;;22.28;nan;99129.41;5054570;28;20452;-77
2023/08/25 00:43:43;;;;;;;4.47;3.60;;;;;;;22.33;nan;99134.16;5052505;28;20483;-77
2023/08/25 00:46:10;;;;;;;7.37;4.50;;;;;;;22.36;nan;99131.16;5052830;28;20219;-77
2023/08/25 00:48:36;;;;;;;4.13;3.27;;;;;;;22.38;nan;99126.41;5052488;28;20204;-77
2023/08/25 00:51:04;;;;;;;5.10;3.30;;;;;;;22.37;nan;99129.31;5055922;28;20467;-77
2023/08/25 00:53:31;;;;;;;4.70;4.20;;;;;;;22.33;nan;99131.50;5054945;28;21144;-77
2023/08/25 00:55:57;;;;;;;4.10;3.80;;;;;;;22.34;nan;99118.97;5052851;28;20450;-77
2023/08/25 00:58:23;;;;;;;3.90;3.37;;;;;;;22.34;nan;99101.06;5053440;28;20508;-77
2023/08/25 01:00:50;;;;;;;4.83;3.50;;;;;;;22.34;nan;99101.06;5047890;28;20478;-77
2023/08/25 01:03:16;;;;;;;4.47;3.27;;;;;;;22.31;nan;99110.28;5053279;28;20455;-77
2023/08/25 01:05:42;;;;;;;5.70;3.50;;;;;;;22.30;nan;99111.31;5052933;28;20453;-77
2023/08/25 01:08:08;;;;;;;5.97;3.77;;;;;;;22.28;nan;99099.97;5053673;28;20584;-77
2023/08/25 01:10:44;;;;;;;5.63;4.40;;;;;;;22.29;nan;99093.59;5052266;28;20228;-77
2023/08/25 01:13:19;;;;;;;5.43;3.80;;;;;;;22.29;nan;99088.25;5051617;28;20462;-77
2023/08/25 01:15:47;;;;;;;4.60;4.20;;;;;;;22.29;nan;99090.91;5051553;28;20546;-77
2023/08/25 01:18:20;;;;;;;3.63;3.20;;;;;;;22.30;nan;99086.38;5052809;28;20426;-77
2023/08/25 01:20:48;;;;;;;4.80;3.53;;;;;;;22.29;nan;99082.88;5053920;28;20478;-77
2023/08/25 01:23:27;;;;;;;5.67;5.17;;;;;;;22.27;nan;99079.56;5059155;28;20532;-77
2023/08/25 01:25:53;;;;;;;5.20;4.80;;;;;;;22.27;nan;99073.38;5053754;28;20504;-77
2023/08/25 01:28:21;;;;;;;4.80;4.00;;;;;;;22.26;nan;99074.41;5053854;28;20459;-77
2023/08/25 01:30:48;;;;;;;5.30;4.00;;;;;;;22.25;nan;99075.41;5052848;28;20841;-77
2023/08/25 01:33:15;;;;;;;4.37;3.97;;;;;;;22.25;nan;99080.75;5051988;28;20465;-77
2023/08/25 01:36:10;;;;;;;5.80;4.53;;;;;;;22.14;nan;99079.34;5054311;28;20434;-77
2023/08/25 01:39:08;;;;;;;4.47;3.93;;;;;;;22.02;nan;99084.34;5054182;28;21054;-77
2023/08/25 01:41:46;;;;;;;5.60;3.57;;;;;;;22.00;nan;99085.53;5047853;28;21471;-77
2023/08/25 01:44:18;;;;;;;5.63;4.90;;;;;;;22.00;nan;99080.19;5052055;28;20920;-77
2023/08/25 01:46:54;;;;;;;4.70;3.67;;;;;;;21.97;nan;99057.31;5052969;28;20810;-76
2023/08/25 01:49:21;;;;;;;4.93;3.80;;;;;;;21.93;nan;99057.88;5053563;28;20478;-76
2023/08/25 01:51:47;;;;;;;4.77;4.37;;;;;;;21.88;nan;99059.25;5051870;28;21338;-76
2023/08/25 01:54:13;;;;;;;4.07;3.60;;;;;;;21.86;nan;99063.94;5052374;28;20735;-76
2023/08/25 01:56:39;;;;;;;6.67;4.30;;;;;;;21.87;nan;99062.09;5053013;28;21087;-77
2023/08/25 01:59:04;;;;;;;3.97;3.57;;;;;;;21.87;nan;99057.63;5053228;28;20521;-76
2023/08/25 02:01:30;;;;;;;5.57;4.10;;;;;;;21.90;nan;99044.88;5050556;28;20543;-76
2023/08/25 02:03:56;;;;;;;5.10;4.03;;;;;;;21.90;nan;99036.84;5052094;28;20204;-76
2023/08/25 02:06:24;;;;;;;4.57;3.80;;;;;;;21.92;nan;99038.31;5051337;28;21089;-76
2023/08/25 02:08:49;;;;;;;8.03;4.37;;;;;;;21.91;nan;99030.50;5050453;28;20445;-76
2023/08/25 02:11:15;;;;;;;5.60;4.50;;;;;;;21.86;nan;99031.88;5052279;28;20201;-76
2023/08/25 02:13:42;;;;;;;5.80;3.73;;;;;;;21.85;nan;99027.53;5051343;28;20204;-76
2023/08/25 02:16:07;;;;;;;7.47;4.33;;;;;;;21.83;nan;99020.72;5052107;28;20961;-76
2023/08/25 02:18:33;;;;;;;6.40;4.10;;;;;;;21.83;nan;99020.72;5054541;28;20199;-76
2023/08/25 02:20:59;;;;;;;5.00;3.50;;;;;;;21.83;nan;99018.88;5051035;28;20704;-76
2023/08/25 02:23:24;;;;;;;9.50;4.00;;;;;;;21.83;nan;99015.38;5051470;28;20445;-76
2023/08/25 02:25:51;;;;;;;3.93;3.63;;;;;;;21.82;nan;99014.56;5050808;28;20464;-76
2023/08/25 02:28:17;;;;;;;6.10;4.37;;;;;;;21.83;nan;99007.34;5050974;28;20533;-76
2023/08/25 02:30:43;;;;;;;4.30;3.63;;;;;;;21.80;nan;99002.38;5052635;28;20209;-76
2023/08/25 02:33:08;;;;;;;4.70;3.23;;;;;;;21.73;nan;98988.91;5052791;28;20227;-76
2023/08/25 02:35:33;;;;;;;5.30;4.20;;;;;;;21.68;nan;98979.78;5052389;28;20528;-76
2023/08/25 02:38:06;;;;;;;4.63;3.50;;;;;;;21.63;nan;98973.16;5050205;28;20470;-76
2023/08/25 02:40:33;;;;;;;5.70;3.87;;;;;;;21.61;nan;98971.69;5053767;28;20209;-76
2023/08/25 02:43:04;;;;;;;4.83;4.33;;;;;;;21.59;nan;98957.66;5050093;28;20421;-76
2023/08/25 02:45:30;;;;;;;4.20;3.80;;;;;;;21.57;nan;98962.38;5050609;28;20453;-76
2023/08/25 02:47:56;;;;;;;5.43;4.27;;;;;;;21.58;nan;98961.38;5051686;28;20795;-76
2023/08/25 02:50:22;;;;;;;3.40;3.10;;;;;;;21.57;nan;98954.34;5049753;28;20471;-76
2023/08/25 02:52:48;;;;;;;5.93;4.03;;;;;;;21.51;nan;98945.22;5052624;28;20204;-76
2023/08/25 02:55:19;;;;;;;4.40;3.83;;;;;;;21.48;nan;98934.91;5056367;28;20291;-76
2023/08/25 02:57:45;;;;;;;10.53;6.67;;;;;;;21.50;nan;98942.75;5053500;28;20221;-76
2023/08/25 03:00:12;;;;;;;4.93;4.10;;;;;;;21.48;nan;98915.38;5052163;28;20429;-76
2023/08/25 03:02:38;;;;;;;4.40;4.00;;;;;;;21.43;nan;98915.94;5031618;28;20434;-76
2023/08/25 03:05:03;;;;;;;6.53;3.87;;;;;;;21.40;nan;98903.75;5054328;28;20461;-76
2023/08/25 03:07:29;;;;;;;8.67;4.30;;;;;;;21.38;nan;98903.13;5035838;28;20381;-76
2023/08/25 03:09:55;;;;;;;4.57;3.93;;;;;;;21.36;nan;98913.16;5039162;28;20534;-76
2023/08/25 03:12:20;;;;;;;5.00;2.83;;;;;;;21.33;nan;98900.16;5031877;28;20204;-76
2023/08/25 03:14:46;;;;;;;10.60;4.27;;;;;;;21.37;nan;98898.78;5044403;28;20235;-76
2023/08/25 03:17:12;;;;;;;4.90;4.10;;;;;;;21.40;nan;98903.75;5034608;28;20501;-75
2023/08/25 03:19:38;;;;;;;9.40;4.00;;;;;;;21.44;nan;98898.88;5033764;28;20215;-74
2023/08/25 03:22:04;;;;;;;5.40;3.47;;;;;;;21.48;nan;98896.69;5054313;28;20693;-75
2023/08/25 03:24:32;;;;;;;6.93;4.40;;;;;;;21.49;nan;98907.16;5035681;28;20466;-75
2023/08/25 03:26:57;;;;;;;5.57;4.30;;;;;;;21.49;nan;98901.00;5035470;28;20443;-75
2023/08/25 03:29:25;;;;;;;5.27;3.90;;;;;;;21.49;nan;98915.19;5034387;28;20533;-74
2023/08/25 03:31:50;;;;;;;10.93;5.80;;;;;;;21.49;nan;98912.50;5054170;28;20528;-75
2023/08/25 03:34:16;;;;;;;5.40;4.40;;;;;;;21.50;nan;98910.69;5055406;28;20535;-75
2023/08/25 03:36:41;;;;;;;7.07;5.50;;;;;;;21.53;nan;98907.66;5036003;28;20950;-75
2023/08/25 03:39:07;;;;;;;4.80;4.30;;;;;;;21.54;nan;98903.94;5052875;28;20702;-75
2023/08/25 03:41:32;;;;;;;10.47;4.40;;;;;;;21.53;nan;98897.78;5054571;28;20304;-75
2023/08/25 03:43:58;;;;;;;4.60;4.17;;;;;;;21.53;nan;98892.44;5037346;28;20548;-75
2023/08/25 03:46:23;;;;;;;5.47;4.73;;;;;;;21.55;nan;98882.41;5038108;28;20209;-75
2023/08/25 03:48:49;;;;;;;6.37;4.70;;;;;;;21.56;nan;98888.56;5036710;28;20287;-75
2023/08/25 03:51:14;;;;;;;4.30;3.90;;;;;;;21.57;nan;98893.72;5037285;28;20209;-75
2023/08/25 03:53:39;;;;;;;6.17;4.33;;;;;;;21.57;nan;98900.91;5037411;28;20202;-75
2023/08/25 03:56:06;;;;;;;5.43;4.13;;;;;;;21.57;nan;98898.22;5033398;28;20212;-75
2023/08/25 03:58:31;;;;;;;5.43;4.43;;;;;;;21.56;nan;98899.25;5052555;28;20421;-75
2023/08/25 04:00:56;;;;;;;5.70;5.00;;;;;;;21.52;nan;98888.13;5038097;28;20702;-75
2023/08/25 04:03:22;;;;;;;4.50;3.73;;;;;;;21.49;nan;98884.97;5052310;28;20284;-74
2023/08/25 04:05:48;;;;;;;6.13;4.07;;;;;;;21.47;nan;98877.16;5053714;28;20238;-73
2023/08/25 04:08:13;;;;;;;7.23;5.27;;;;;;;21.49;nan;98882.28;5050216;28;20710;-73
2023/08/25 04:10:43;;;;;;;6.53;3.77;;;;;;;21.49;nan;98882.28;5065636;28;20225;-73
2023/08/25 04:13:10;;;;;;;6.83;4.07;;;;;;;21.46;nan;98871.97;5051364;28;20388;-73
2023/08/25 04:15:36;;;;;;;7.10;4.90;;;;;;;21.40;nan;98863.69;5049380;28;21173;-73
2023/08/25 04:18:02;;;;;;;4.17;3.77;;;;;;;21.40;nan;98863.69;5053881;28;20197;-72
2023/08/25 04:20:28;;;;;;;5.93;4.67;;;;;;;21.37;nan;98869.41;5049485;28;20470;-73
2023/08/25 04:22:53;;;;;;;6.07;4.37;;;;;;;21.33;nan;98875.25;5052232;28;20429;-73
2023/08/25 04:25:18;;;;;;;5.57;4.60;;;;;;;21.31;nan;98888.00;5053311;28;20226;-73
2023/08/25 04:27:44;;;;;;;4.93;4.13;;;;;;;21.29;nan;98880.16;5049856;28;20207;-73
2023/08/25 04:30:10;;;;;;;9.10;4.43;;;;;;;21.29;nan;98869.47;5050317;28;20213;-73
2023/08/25 04:32:36;;;;;;;6.10;4.50;;;;;;;21.28;nan;98875.84;5048299;28;20201;-74
2023/08/25 04:35:03;;;;;;;5.13;4.47;;;;;;;21.28;nan;98881.19;5052569;28;20459;-73
2023/08/25 04:37:29;;;;;;;5.43;4.93;;;;;;;21.30;nan;98870.28;5051815;28;20197;-73
2023/08/25 04:39:55;;;;;;;7.87;5.47;;;;;;;21.28;nan;98873.16;5054607;28;20465;-73
2023/08/25 04:42:24;;;;;;;5.40;4.87;;;;;;;21.30;nan;98881.81;5049196;28;20455;-74
2023/08/25 04:44:49;;;;;;;12.67;5.20;;;;;;;21.33;nan;98889.47;5045387;28;21275;-73
2023/08/25 04:47:16;;;;;;;5.30;4.60;;;;;;;21.37;nan;98896.13;5051388;28;20501;-74
2023/08/25 04:49:45;;;;;;;8.00;5.27;;;;;;;21.40;nan;98909.09;5049319;28;20477;-74
2023/08/25 04:52:10;;;;;;;6.93;5.77;;;;;;;21.43;nan;98905.25;5051020;28;20284;-74
2023/08/25 04:54:36;;;;;;;6.87;4.60;;;;;;;21.43;nan;98914.06;5052515;28;21348;-74
2023/08/25 04:57:02;;;;;;;7.87;5.00;;;;;;;21.47;nan;98911.03;5050582;28;20201;-73
2023/08/25 04:59:28;;;;;;;8.30;5.03;;;;;;;21.50;nan;98911.50;5050802;28;20749;-74
2023/08/25 05:01:53;;;;;;;5.80;4.50;;;;;;;21.53;nan;98907.66;5051315;28;21064;-75
2023/08/25 05:04:20;;;;;;;6.70;5.27;;;;;;;21.56;nan;98925.97;5050752;28;20222;-74
2023/08/25 05:06:45;;;;;;;4.90;4.40;;;;;;;21.59;nan;98947.81;5049577;28;20428;-73
2023/08/25 05:09:12;;;;;;;8.20;5.63;;;;;;;21.68;nan;98947.72;5051166;28;21311;-74
2023/08/25 05:11:39;;;;;;;7.30;4.50;;;;;;;21.75;nan;98952.13;5052077;28;20479;-73
2023/08/25 05:14:05;;;;;;;7.20;5.43;;;;;;;21.98;nan;98953.84;5060350;28;20192;-74
2023/08/25 05:16:30;;;;;;;7.17;4.97;;;;;;;22.26;nan;98962.88;5051343;28;20440;-74
2023/08/25 05:19:13;;;;;;;6.70;5.37;;;;;;;22.51;nan;98965.19;5045307;28;20417;-73
2023/08/25 05:21:41;;;;;;;6.40;5.23;;;;;;;22.75;nan;98974.69;5045675;28;20463;-74
2023/08/25 05:24:25;;;;;;;11.83;5.80;;;;;;;23.00;nan;98975.16;5048784;28;20476;-74
2023/08/25 05:26:53;;;;;;;6.30;4.53;;;;;;;23.23;nan;98985.66;5044700;28;20221;-74
2023/08/25 05:29:25;;;;;;;7.53;4.87;;;;;;;23.35;nan;99007.38;5041901;28;20466;-73
2023/08/25 05:31:52;;;;;;;6.40;4.37;;;;;;;23.28;nan;99028.78;5041634;28;20432;-73
2023/08/25 05:34:36;;;;;;;9.90;5.50;;;;;;;23.13;nan;99044.09;5041453;28;20438;-74
2023/08/25 05:37:06;;;;;;;7.63;5.77;;;;;;;23.03;nan;99049.75;5048518;28;20430;-73
2023/08/25 05:39:32;;;;;;;6.40;5.33;;;;;;;22.77;nan;99060.19;5044910;28;20451;-74
2023/08/25 05:41:58;;;;;;;7.70;5.60;;;;;;;22.48;nan;99065.41;5044515;28;20198;-74
2023/08/25 05:44:23;;;;;;;8.50;6.30;;;;;;;22.25;nan;99094.13;5043558;28;20454;-74
2023/08/25 05:46:48;;;;;;;8.17;4.80;;;;;;;22.12;nan;99102.81;5042934;28;20201;-73
2023/08/25 05:49:14;;;;;;;7.00;5.40;;;;;;;21.97;nan;99094.75;5042453;28;20295;-73
2023/08/25 05:51:39;;;;;;;7.83;5.43;;;;;;;21.82;nan;99102.78;5043419;28;20891;-74
2023/08/25 05:54:05;;;;;;;6.30;4.93;;;;;;;21.73;nan;99109.19;5038926;28;20197;-74
2023/08/25 05:56:30;;;;;;;8.23;5.70;;;;;;;21.59;nan;99104.66;5042847;28;20209;-74
2023/08/25 05:58:59;;;;;;;5.37;4.67;;;;;;;21.46;nan;99107.13;5043686;28;21070;-75
2023/08/25 06:01:24;;;;;;;7.50;5.37;;;;;;;21.46;nan;99115.94;5036518;28;20255;-73
2023/08/25 06:03:50;;;;;;;8.90;4.77;;;;;;;21.49;nan;99125.44;5044816;28;20576;-73
2023/08/25 06:06:16;;;;;;;10.17;6.00;;;;;;;21.56;nan;99148.63;5045652;28;20429;-73
2023/08/25 06:08:42;;;;;;;9.00;6.10;;;;;;;21.62;nan;99161.25;5040064;28;20200;-74
2023/08/25 06:11:07;;;;;;;7.50;4.90;;;;;;;21.64;nan;99171.78;5046169;28;20560;-73
2023/08/25 06:13:33;;;;;;;9.83;5.03;;;;;;;21.69;nan;99180.09;5043574;28;20192;-74
2023/08/25 06:15:58;;;;;;;6.57;4.50;;;;;;;21.76;nan;99194.38;5045629;28;21142;-73
2023/08/25 06:18:24;;;;;;;6.87;4.27;;;;;;;21.82;nan;99191.00;5046480;28;21041;-73
2023/08/25 06:20:50;;;;;;;5.30;4.80;;;;;;;21.87;nan;99196.66;5042522;28;20197;-74
2023/08/25 06:23:16;;;;;;;6.60;4.37;;;;;;;21.92;nan;99222.00;5046899;28;20249;-74
2023/08/25 06:25:42;;;;;;;6.07;5.53;;;;;;;21.95;nan;99238.50;5046407;28;20440;-75
2023/08/25 06:28:07;;;;;;;5.57;4.83;;;;;;;21.98;nan;99264.06;5053388;28;20202;-75
2023/08/25 06:30:32;;;;;;;8.87;4.93;;;;;;;22.02;nan;99286.78;5047088;28;21170;-75
2023/08/25 06:32:58;;;;;;;5.90;4.80;;;;;;;22.05;nan;99311.31;5049600;28;20185;-75
2023/08/25 06:35:24;;;;;;;5.83;5.03;;;;;;;22.07;nan;99328.03;5047501;28;20834;-75
2023/08/25 06:37:49;;;;;;;7.00;5.50;;;;;;;22.10;nan;99351.72;5047340;28;20214;-76
2023/08/25 06:40:15;;;;;;;7.50;5.07;;;;;;;22.13;nan;99371.13;5048756;28;20208;-75
2023/08/25 06:42:40;;;;;;;6.93;5.77;;;;;;;22.14;nan;99400.34;5054862;28;20235;-75
2023/08/25 06:45:07;;;;;;;8.63;6.80;;;;;;;22.13;nan;99414.75;5049743;28;20189;-75
2023/08/25 06:47:34;;;;;;;6.10;5.43;;;;;;;22.10;nan;99445.34;5051951;28;20208;-75
2023/08/25 06:50:00;;;;;;;8.37;6.43;;;;;;;22.04;nan;99506.75;5051351;28;20447;-75
2023/08/25 06:52:25;;;;;;;7.17;6.47;;;;;;;22.01;nan;99541.88;5051438;28;21539;-75
2023/08/25 06:54:51;;;;;;;10.10;5.40;;;;;;;21.96;nan;99558.44;5053068;28;20455;-75
2023/08/25 06:57:16;;;;;;;8.40;5.20;;;;;;;21.93;nan;99552.56;5050490;28;20318;-76
2023/08/25 06:59:42;;;;;;;11.03;7.47;;;;;;;21.86;nan;99547.94;5054982;28;20229;-76
2023/08/25 07:02:08;;;;;;;9.17;6.03;;;;;;;21.84;nan;99520.50;5055271;28;20221;-76
2023/08/25 07:04:34;;;;;;;11.00;6.10;;;;;;;21.83;nan;99485.94;5059206;28;20204;-76
2023/08/25 07:07:00;;;;;;;12.00;7.00;;;;;;;21.84;nan;99418.91;5051459;28;21165;-76
2023/08/25 07:09:25;;;;;;;6.43;5.57;;;;;;;21.79;nan;99383.00;5058215;28;20208;-76
2023/08/25 07:11:51;;;;;;;9.40;6.40;;;;;;;21.70;nan;99360.00;5054431;28;21143;-76
2023/08/25 07:14:16;;;;;;;8.70;6.80;;;;;;;21.65;nan;99353.34;5055992;28;20188;-76
2023/08/25 07:16:42;;;;;;;6.93;6.23;;;;;;;21.65;nan;99334.63;5050196;28;20771;-76
2023/08/25 07:19:08;;;;;;;11.17;6.63;;;;;;;21.59;nan;99291.75;5056187;28;20242;-76
2023/08/25 07:21:33;;;;;;;9.53;5.80;;;;;;;21.56;nan;99282.25;5050366;28;20434;-76
2023/08/25 07:23:59;;;;;;;7.00;5.37;;;;;;;21.54;nan;99275.41;5056382;28;20216;-77
2023/08/25 07:26:25;;;;;;;9.10;5.73;;;;;;;21.44;nan;99272.94;5062458;28;20733;-76
2023/08/25 07:28:51;;;;;;;7.00;6.07;;;;;;;21.42;nan;99273.13;5053798;28;20679;-76
2023/08/25 07:31:17;;;;;;;9.97;6.60;;;;;;;21.47;nan;99279.78;5052842;28;20437;-76
2023/08/25 07:33:42;;;;;;;8.93;5.00;;;;;;;21.50;nan;99264.25;5055603;28;20200;-76
2023/08/25 07:36:07;;;;;;;6.33;5.10;;;;;;;21.50;nan;99253.56;5055039;28;20192;-76
2023/08/25 07:38:33;;;;;;;8.23;5.90;;;;;;;21.53;nan;99252.38;5046300;28;20561;-76
2023/08/25 07:40:58;;;;;;;16.83;13.83;;;;;;;21.57;nan;99242.97;5041968;28;20228;-75
2023/08/25 07:43:23;;;;;;;10.13;7.10;;;;;;;21.62;nan;99249.44;5041238;28;20228;-76
2023/08/25 07:45:49;;;;;;;7.57;5.20;;;;;;;21.63;nan;99242.28;5031246;28;20918;-76
2023/08/25 07:48:14;;;;;;;6.90;4.93;;;;;;;21.60;nan;99231.94;5043069;28;21213;-76
2023/08/25 07:50:40;;;;;;;9.03;4.80;;;;;;;21.65;nan;99230.38;5042130;28;21239;-76
2023/08/25 07:53:06;;;;;;;8.63;4.80;;;;;;;21.69;nan;99214.84;5043173;28;20308;-76
2023/08/25 07:55:32;;;;;;;7.50;6.37;;;;;;;21.73;nan;99226.81;5044572;28;20248;-76
2023/08/25 07:57:58;;;;;;;11.17;5.40;;;;;;;21.78;nan;99218.28;5039874;28;20453;-77
2023/08/25 08:00:23;;;;;;;6.00;4.70;;;;;;;21.81;nan;99226.75;5040838;28;20441;-76
2023/08/25 08:02:50;;;;;;;7.37;5.33;;;;;;;21.82;nan;99204.38;5039986;28;20311;-77
2023/08/25 08:05:17;;;;;;;5.93;5.43;;;;;;;21.80;nan;99193.03;5040563;28;20545;-77
2023/08/25 08:07:47;;;;;;;6.20;5.30;;;;;;;21.82;nan;99172.28;5040475;28;20254;-76
2023/08/25 08:10:13;;;;;;;8.40;5.60;;;;;;;21.89;nan;99169.72;5037865;28;20452;-76
2023/08/25 08:12:39;;;;;;;6.77;5.27;;;;;;;21.95;nan;99162.81;5037182;28;20477;-76
2023/08/25 08:15:06;;;;;;;7.77;6.30;;;;;;;22.01;nan;99138.03;5040735;28;20209;-76
2023/08/25 08:17:31;;;;;;;5.67;4.80;;;;;;;22.06;nan;99139.13;5043720;28;20213;-76
2023/08/25 08:19:57;;;;;;;5.00;4.47;;;;;;;22.15;nan;99131.03;5039821;28;20498;-77
2023/08/25 08:22:22;;;;;;;6.37;4.83;;;;;;;22.23;nan;99121.09;5043352;28;20271;-76
2023/08/25 08:24:48;;;;;;;4.63;4.10;;;;;;;22.24;nan;99138.78;5043726;28;20582;-77
2023/08/25 08:27:17;;;;;;;7.30;4.20;;;;;;;22.30;nan;99130.06;5040485;28;20186;-76
2023/08/25 08:29:45;;;;;;;6.50;4.40;;;;;;;22.35;nan;99117.94;5044085;28;20441;-76
2023/08/25 08:32:12;;;;;;;5.73;4.17;;;;;;;22.41;nan;99109.16;5045535;28;20459;-76
2023/08/25 08:34:38;;;;;;;7.33;4.80;;;;;;;22.48;nan;99136.84;5045325;28;20443;-76
2023/08/25 08:37:06;;;;;;;5.60;5.00;;;;;;;22.55;nan;99145.81;5042451;28;20438;-77
2023/08/25 08:39:33;;;;;;;6.33;4.87;;;;;;;22.62;nan;99160.09;5043642;28;20711;-77
2023/08/25 08:42:01;;;;;;;8.90;5.40;;;;;;;22.69;nan;99171.72;5042440;28;20514;-77
2023/08/25 08:44:26;;;;;;;6.07;5.00;;;;;;;22.69;nan;99171.72;5040072;28;20444;-75
2023/08/25 08:46:53;;;;;;;6.07;5.17;;;;;;;22.69;nan;99177.09;5044758;28;20979;-77
2023/08/25 08:49:22;;;;;;;6.77;5.23;;;;;;;22.68;nan;99193.31;5044628;28;20218;-77
2023/08/25 08:51:49;;;;;;;7.27;5.27;;;;;;;22.67;nan;99205.06;5041467;28;20438;-76
2023/08/25 08:54:19;;;;;;;4.67;4.20;;;;;;;22.64;nan;99216.97;5042328;28;20430;-77
2023/08/25 08:56:45;;;;;;;6.43;5.07;;;;;;;22.65;nan;99226.66;5043410;28;20455;-75
2023/08/25 08:59:10;;;;;;;5.93;5.40;;;;;;;22.69;nan;99208.38;5038476;28;20412;-77
2023/08/25 09:01:36;;;;;;;5.33;4.27;;;;;;;22.74;nan;99227.41;5036600;28;20626;-77
2023/08/25 09:04:03;;;;;;;5.23;4.50;;;;;;;22.78;nan;99234.03;5041409;28;20204;-77
2023/08/25 09:06:35;;;;;;;6.53;5.50;;;;;;;22.83;nan;99249.56;5037187;28;20759;-76
2023/08/25 09:09:04;;;;;;;7.87;5.77;;;;;;;22.86;nan;99246.50;5041874;28;20447;-76
2023/08/25 09:11:29;;;;;;;7.57;6.23;;;;;;;22.90;nan;99239.75;5042979;28;20474;-77
2023/08/25 09:13:57;;;;;;;6.53;4.93;;;;;;;22.94;nan;99246.41;5045769;28;20446;-76
2023/08/25 09:16:24;;;;;;;4.60;4.20;;;;;;;22.99;nan;99259.28;5044711;28;20185;-76
2023/08/25 09:18:49;;;;;;;4.70;4.30;;;;;;;23.00;nan;99256.41;5038774;28;20481;-77
2023/08/25 09:21:21;;;;;;;5.03;4.53;;;;;;;23.00;nan;99258.25;5040839;28;20459;-75
2023/08/25 09:23:54;;;;;;;6.70;4.73;;;;;;;23.02;nan;99285.69;5041105;28;20194;-75
2023/08/25 09:26:20;;;;;;;5.03;4.50;;;;;;;23.03;nan;99279.31;5037846;28;21112;-77
2023/08/25 09:28:45;;;;;;;6.00;4.23;;;;;;;23.07;nan;99267.22;5041718;28;20436;-76
2023/08/25 09:31:23;;;;;;;5.50;4.70;;;;;;;23.12;nan;99268.31;5039044;28;20304;-77
2023/08/25 09:33:51;;;;;;;9.33;5.97;;;;;;;23.14;nan;99268.97;5042438;28;20204;-75
2023/08/25 09:36:18;;;;;;;5.40;4.70;;;;;;;23.15;nan;99275.97;5043547;28;20433;-76
2023/08/25 09:38:45;;;;;;;8.33;5.43;;;;;;;23.18;nan;99267.56;5045717;28;20433;-76
2023/08/25 09:41:11;;;;;;;12.00;5.13;;;;;;;23.22;nan;99269.84;5046501;28;20474;-75
2023/08/25 09:43:38;;;;;;;10.20;5.70;;;;;;;23.27;nan;99252.19;5039414;28;20464;-77
2023/08/25 09:46:08;;;;;;;6.70;5.97;;;;;;;23.37;nan;99267.97;5040326;28;20460;-77
2023/08/25 09:48:35;;;;;;;8.17;6.50;;;;;;;23.51;nan;99266.28;5042339;28;20463;-77
2023/08/25 09:51:00;;;;;;;10.50;6.30;;;;;;;23.63;nan;99273.66;5042113;28;20466;-76
2023/08/25 09:53:31;;;;;;;8.33;6.20;;;;;;;23.76;nan;99277.50;5044269;28;20476;-77
2023/08/25 09:56:02;;;;;;;6.80;6.10;;;;;;;23.87;nan;99263.56;5031393;28;21357;-76
2023/08/25 09:58:28;;;;;;;5.97;5.17;;;;;;;23.95;nan;99262.63;5045002;28;20461;-75
2023/08/25 10:00:54;;;;;;;7.90;5.03;;;;;;;24.07;nan;99269.13;5043762;28;20442;-77
2023/08/25 10:03:23;;;;;;;6.23;4.90;;;;;;;24.14;nan;99271.88;5065232;22;20549;-84
2023/08/25 10:05:55;;;;;;;8.02;5.07;;;;;;;24.27;nan;99254.00;5023065;28;20625;-83
2023/08/25 10:08:22;;;;;;;8.73;5.33;;;;;;;24.41;nan;99270.22;5028377;28;20206;-83
2023/08/25 10:10:47;;;;;;;5.47;4.40;;;;;;;24.55;nan;99260.44;5030639;28;20474;-83
2023/08/25 10:13:15;;;;;;;4.67;4.20;;;;;;;24.70;nan;99248.56;5040748;28;20468;-83
2023/08/25 10:15:42;;;;;;;4.90;4.50;;;;;;;24.90;nan;99253.22;5045319;28;20545;-83
2023/08/25 10:18:08;;;;;;;4.80;4.33;;;;;;;25.05;nan;99259.28;5042990;28;20443;-84
2023/08/25 10:20:36;;;;;;;7.33;4.13;;;;;;;25.15;nan;99258.94;5044960;28;20790;-83
2023/08/25 10:23:04;;;;;;;4.13;3.67;;;;;;;25.22;nan;99262.50;5048498;28;21017;-83
2023/08/25 10:25:31;;;;;;;5.90;3.90;;;;;;;25.29;nan;99274.09;5053642;28;20471;-82
2023/08/25 10:28:02;;;;;;;4.80;3.50;;;;;;;25.33;nan;99274.50;5032848;28;20990;-81
2023/08/25 10:30:28;;;;;;;4.70;4.17;;;;;;;25.35;nan;99265.22;5043044;28;20473;-82
2023/08/25 10:33:04;;;;;;;4.07;3.37;;;;;;;25.39;nan;99257.59;5048010;28;20477;-82
2023/08/25 10:35:48;;;;;;;6.23;4.07;;;;;;;25.42;nan;99264.44;5044464;28;21241;-81
2023/08/25 10:38:20;;;;;;;5.10;4.13;;;;;;;25.47;nan;99267.34;5046671;28;20459;-83
2023/08/25 10:40:56;;;;;;;4.77;3.27;;;;;;;25.48;nan;99253.66;5046954;28;20981;-82
2023/08/25 10:43:31;;;;;;;5.80;3.47;;;;;;;25.50;nan;99270.44;5042517;28;20463;-84
2023/08/25 10:46:00;;;;;;;3.63;3.30;;;;;;;25.60;nan;99275.44;5034291;28;20460;-83
2023/08/25 10:48:26;;;;;;;4.50;3.23;;;;;;;25.65;nan;99267.56;5037221;28;21067;-86
2023/08/25 10:51:08;;;;;;;3.80;3.50;;;;;;;25.78;nan;99266.78;5046641;28;21000;-82
2023/08/25 10:53:53;;;;;;;4.77;3.60;;;;;;;25.86;nan;99258.53;5054073;28;20479;-84
2023/08/25 10:56:18;;;;;;;4.20;3.77;;;;;;;26.07;nan;99246.75;5055698;28;20583;-85
2023/08/25 10:59:15;;;;;;;4.90;4.50;;;;;;;26.24;nan;99247.16;5057112;28;20551;-84
2023/08/25 11:01:42;;;;;;;4.70;2.83;;;;;;;26.35;nan;99243.00;5038538;28;20210;-83
2023/08/25 11:04:12;;;;;;;4.47;2.90;;;;;;;26.34;nan;99228.72;5052203;28;20497;-83
2023/08/25 11:06:41;;;;;;;4.35;3.47;;;;;;;26.35;nan;99206.13;5035291;28;20450;-84
2023/08/25 11:09:27;;;;;;;3.87;3.33;;;;;;;26.39;nan;99210.06;5037227;28;20240;-85
2023/08/25 11:12:06;;;;;;;3.73;2.93;;;;;;;26.41;nan;99181.06;5041261;28;20475;-83
2023/08/25 11:14:39;;;;;;;4.10;3.20;;;;;;;26.40;nan;99163.25;5038823;28;20467;-82
2023/08/25 11:17:07;;;;;;;6.37;3.70;;;;;;;26.44;nan;99145.63;5045376;28;20459;-82
2023/08/25 11:19:37;;;;;;;3.47;2.90;;;;;;;26.46;nan;99108.56;5036948;28;20466;-84
2023/08/25 11:22:05;;;;;;;3.87;3.47;;;;;;;26.48;nan;99098.38;5049740;28;20475;-84
2023/08/25 11:24:31;;;;;;;4.03;3.40;;;;;;;26.49;nan;99085.72;5046768;28;20455;-84
2023/08/25 11:27:11;;;;;;;3.10;2.80;;;;;;;26.45;nan;99062.97;5049854;28;20462;-83
2023/08/25 11:29:39;;;;;;;3.40;3.10;;;;;;;26.40;nan;99043.94;5046567;28;20676;-83
2023/08/25 11:32:05;;;;;;;4.03;3.20;;;;;;;26.45;nan;99017.19;5051413;28;21056;-83
2023/08/25 11:34:34;;;;;;;3.90;3.17;;;;;;;26.50;nan;98963.50;5038875;28;20533;-82
2023/08/25 11:37:00;;;;;;;4.35;3.80;;;;;;;26.56;nan;98891.81;5044771;28;20441;-83
2023/08/25 11:39:26;;;;;;;4.60;3.40;;;;;;;26.57;nan;98896.16;5045384;28;20581;-83
2023/08/25 11:41:55;;;;;;;3.47;3.17;;;;;;;26.62;nan;98921.38;5040803;28;20452;-83
2023/08/25 11:44:25;;;;;;;4.17;3.30;;;;;;;26.72;nan;98929.00;5044337;28;20817;-82
2023/08/25 11:46:53;;;;;;;4.07;3.07;;;;;;;26.84;nan;98921.88;5046280;28;20479;-83
2023/08/25 11:49:20;;;;;;;3.80;3.27;;;;;;;26.96;nan;98934.63;5053199;28;20455;-82
2023/08/25 11:51:48;;;;;;;4.37;2.80;;;;;;;27.06;nan;98943.84;5050878;28;20699;-83